createdAt,value
2017-11-19T00:00:55.071Z,14.18
2017-11-19T00:03:22.608Z,17.12
2017-11-19T00:05:50.059Z,10.52
2017-11-19T00:08:17.536Z,13.75
2017-11-19T00:10:45.065Z,12.80
2017-11-19T00:13:12.510Z,17.30
2017-11-19T00:15:39.952Z,13.13
2017-11-19T00:18:07.380Z,13.18
2017-11-19T00:20:34.812Z,15.30
2017-11-19T00:23:02.261Z,9.02
2017-11-19T00:25:29.713Z,18.48
2017-11-19T00:27:57.167Z,14.35
2017-11-19T00:30:25.035Z,12.25
2017-11-19T00:32:52.492Z,13.30
2017-11-19T00:35:19.963Z,13.52
2017-11-19T00:37:47.406Z,15.38
2017-11-19T00:40:14.948Z,11.60
2017-11-19T00:42:42.531Z,12.77
2017-11-19T00:45:09.980Z,10.40
2017-11-19T00:47:37.464Z,17.20
2017-11-19T00:50:04.895Z,11.17
2017-11-19T00:52:32.332Z,11.03
2017-11-19T00:54:59.776Z,13.10
2017-11-19T00:57:27.234Z,14.38
2017-11-19T00:59:54.672Z,12.00
2017-11-19T01:02:22.132Z,12.95
2017-11-19T01:04:49.553Z,12.88
2017-11-19T01:07:16.980Z,13.02
2017-11-19T01:09:44.438Z,12.00
2017-11-19T01:12:11.878Z,13.85
2017-11-19T01:14:39.356Z,12.32
2017-11-19T01:17:06.817Z,12.55
2017-11-19T01:19:34.299Z,11.20
2017-11-19T01:22:01.731Z,10.13
2017-11-19T01:24:29.306Z,12.05
2017-11-19T01:26:56.740Z,15.43
2017-11-19T01:29:24.407Z,13.18
2017-11-19T01:31:51.872Z,9.00
2017-11-19T01:34:19.436Z,9.68
2017-11-19T01:36:46.876Z,11.18
2017-11-19T01:39:14.327Z,12.15
2017-11-19T01:41:41.800Z,12.95
2017-11-19T01:44:09.303Z,11.77
2017-11-19T01:46:36.796Z,10.65
2017-11-19T01:49:04.356Z,13.27
2017-11-19T01:51:31.794Z,8.32
2017-11-19T01:53:59.287Z,10.38
2017-11-19T01:56:26.737Z,13.68
2017-11-19T01:58:54.202Z,12.10
2017-11-19T02:01:21.733Z,8.60
2017-11-19T02:03:49.164Z,12.50
2017-11-19T02:06:16.680Z,8.30
2017-11-19T02:08:44.204Z,7.45
2017-11-19T02:11:11.664Z,12.70
2017-11-19T02:13:39.120Z,13.68
2017-11-19T02:16:06.569Z,9.93
2017-11-19T02:18:33.999Z,11.73
2017-11-19T02:21:01.440Z,13.13
2017-11-19T02:23:29.672Z,14.38
2017-11-19T02:25:57.121Z,10.15
2017-11-19T02:28:24.575Z,9.53
2017-11-19T02:30:52.043Z,12.60
2017-11-19T02:33:19.471Z,9.30
2017-11-19T02:35:46.905Z,10.60
2017-11-19T02:38:14.330Z,9.60
2017-11-19T02:40:41.772Z,11.65
2017-11-19T02:43:09.329Z,10.32
2017-11-19T02:45:36.836Z,12.30
2017-11-19T02:48:04.331Z,12.27
2017-11-19T02:50:31.787Z,7.30
2017-11-19T02:52:59.208Z,11.73
2017-11-19T02:55:26.650Z,13.62
2017-11-19T02:57:54.855Z,7.12
2017-11-19T03:00:22.297Z,8.13
2017-11-19T03:02:49.800Z,8.02
2017-11-19T03:05:18.059Z,7.37
2017-11-19T03:07:45.509Z,8.52
2017-11-19T03:10:12.931Z,6.62
2017-11-19T03:12:40.384Z,8.10
2017-11-19T03:15:08.563Z,6.22
2017-11-19T03:17:36.058Z,9.93
2017-11-19T03:20:03.489Z,9.65
2017-11-19T03:22:30.938Z,8.52
2017-11-19T03:24:58.359Z,9.68
2017-11-19T03:27:26.584Z,10.32
2017-11-19T03:29:54.030Z,10.67
2017-11-19T03:32:21.466Z,12.37
2017-11-19T03:34:48.887Z,13.70
2017-11-19T03:37:16.329Z,9.48
2017-11-19T03:39:43.794Z,8.02
2017-11-19T03:42:11.219Z,10.10
2017-11-19T03:44:38.652Z,10.40
2017-11-19T03:47:06.247Z,13.27
2017-11-19T03:49:33.683Z,11.10
2017-11-19T03:52:01.260Z,8.13
2017-11-19T03:54:28.704Z,10.15
2017-11-19T03:56:56.146Z,7.22
2017-11-19T03:59:23.632Z,9.50
2017-11-19T04:01:51.076Z,11.80
2017-11-19T04:04:18.651Z,9.15
2017-11-19T04:06:46.131Z,10.95
2017-11-19T04:09:13.556Z,8.07
2017-11-19T04:11:41.132Z,11.65
2017-11-19T04:14:08.571Z,10.95
2017-11-19T04:16:36.016Z,13.75
2017-11-19T04:19:03.488Z,9.57
2017-11-19T04:21:30.964Z,6.75
2017-11-19T04:23:58.398Z,12.00
2017-11-19T04:26:25.819Z,12.13
2017-11-19T04:28:53.259Z,13.80
2017-11-19T04:31:21.485Z,9.80
2017-11-19T04:33:48.924Z,7.87
2017-11-19T04:36:16.335Z,8.75
2017-11-19T04:38:44.538Z,13.90
2017-11-19T04:41:11.968Z,8.13
2017-11-19T04:43:40.181Z,11.73
2017-11-19T04:46:07.633Z,7.22
2017-11-19T04:48:35.056Z,8.40
2017-11-19T04:51:03.248Z,11.35
2017-11-19T04:53:30.744Z,8.55
2017-11-19T04:55:58.200Z,8.23
2017-11-19T04:58:25.660Z,8.98
2017-11-19T05:00:53.117Z,9.98
2017-11-19T05:03:20.535Z,7.47
2017-11-19T05:05:47.964Z,8.30
2017-11-19T05:08:16.164Z,10.10
2017-11-19T05:10:43.612Z,10.75
2017-11-19T05:13:11.076Z,9.90
2017-11-19T05:15:38.508Z,8.00
2017-11-19T05:18:06.700Z,11.50
2017-11-19T05:20:34.298Z,6.00
2017-11-19T05:23:01.860Z,11.73
2017-11-19T05:25:29.363Z,8.50
2017-11-19T05:27:57.531Z,8.80
2017-11-19T05:30:25.744Z,8.27
2017-11-19T05:32:53.167Z,8.60
2017-11-19T05:35:20.672Z,10.20
2017-11-19T05:37:48.113Z,10.15
2017-11-19T05:40:15.577Z,10.57
2017-11-19T05:42:43.008Z,8.25
2017-11-19T05:45:10.447Z,13.07
2017-11-19T05:47:38.667Z,8.60
2017-11-19T05:50:06.115Z,9.65
2017-11-19T05:52:33.547Z,11.27
2017-11-19T05:55:01.011Z,9.25
2017-11-19T05:57:28.480Z,6.37
2017-11-19T05:59:55.904Z,13.80
2017-11-19T06:02:23.410Z,9.40
2017-11-19T06:04:50.947Z,11.20
2017-11-19T06:07:18.427Z,8.00
2017-11-19T06:09:45.874Z,8.80
2017-11-19T06:12:13.327Z,9.57
2017-11-19T06:14:40.788Z,8.68
2017-11-19T06:17:08.233Z,10.05
2017-11-19T06:19:35.670Z,16.03
2017-11-19T06:22:03.132Z,9.80
2017-11-19T06:24:30.695Z,10.20
2017-11-19T06:26:58.176Z,8.18
2017-11-19T06:29:25.748Z,7.10
2017-11-19T06:31:53.172Z,5.22
2017-11-19T06:34:20.606Z,8.50
2017-11-19T06:36:48.062Z,9.30
2017-11-19T06:39:15.548Z,11.40
2017-11-19T06:41:42.984Z,8.63
2017-11-19T06:44:10.425Z,7.07
2017-11-19T06:46:38.620Z,6.03
2017-11-19T06:49:06.092Z,10.75
2017-11-19T06:51:33.560Z,9.80
2017-11-19T06:54:00.997Z,8.82
2017-11-19T06:56:28.572Z,11.00
2017-11-19T06:58:56.005Z,8.02
2017-11-19T07:01:23.456Z,12.55
2017-11-19T07:03:50.924Z,12.05
2017-11-19T07:06:18.400Z,11.20
2017-11-19T07:08:45.838Z,9.18
2017-11-19T07:11:13.395Z,15.45
2017-11-19T07:13:40.873Z,11.40
2017-11-19T07:16:08.313Z,14.05
2017-11-19T07:18:35.790Z,9.48
2017-11-19T07:21:03.226Z,7.40
2017-11-19T07:23:30.686Z,9.07
2017-11-19T07:25:58.115Z,12.45
2017-11-19T07:28:25.566Z,9.90
2017-11-19T07:30:52.995Z,12.30
2017-11-19T07:33:21.200Z,14.25
2017-11-19T07:35:48.689Z,11.65
2017-11-19T07:38:16.173Z,11.05
2017-11-19T07:40:43.604Z,11.77
2017-11-19T07:43:11.039Z,14.87
2017-11-19T07:45:38.477Z,14.73
2017-11-19T07:48:05.919Z,11.68
2017-11-19T07:50:34.123Z,9.95
2017-11-19T07:53:01.613Z,12.55
2017-11-19T07:55:29.077Z,8.57
2017-11-19T07:57:56.516Z,9.15
2017-11-19T08:00:23.943Z,11.30
2017-11-19T08:02:51.392Z,14.10
2017-11-19T08:05:18.888Z,11.07
2017-11-19T08:07:46.383Z,10.90
2017-11-19T08:10:14.609Z,12.13
2017-11-19T08:12:42.081Z,10.55
2017-11-19T08:15:09.548Z,11.02
2017-11-19T08:17:36.974Z,16.73
2017-11-19T08:20:04.440Z,9.55
2017-11-19T08:22:31.878Z,16.58
2017-11-19T08:24:59.379Z,12.77
2017-11-19T08:27:26.924Z,9.88
2017-11-19T08:29:54.390Z,11.05
2017-11-19T08:32:21.899Z,12.13
2017-11-19T08:34:49.336Z,12.63
2017-11-19T08:37:16.821Z,10.15
2017-11-19T08:39:44.251Z,12.60
2017-11-19T08:42:11.735Z,15.20
2017-11-19T08:44:39.237Z,11.33
2017-11-19T08:47:06.659Z,12.97
2017-11-19T08:49:34.103Z,14.40
2017-11-19T08:52:01.813Z,15.45
2017-11-19T08:54:29.247Z,12.23
2017-11-19T08:56:56.763Z,12.73
2017-11-19T08:59:24.208Z,13.40
2017-11-19T09:01:51.631Z,10.50
2017-11-19T09:04:19.055Z,14.20
2017-11-19T09:06:46.603Z,14.95
2017-11-19T09:09:14.371Z,12.00
2017-11-19T09:11:41.820Z,9.60
2017-11-19T09:14:09.303Z,12.50
2017-11-19T09:16:36.735Z,14.82
2017-11-19T09:19:04.212Z,11.48
2017-11-19T09:21:31.650Z,11.05
2017-11-19T09:23:59.087Z,12.02
2017-11-19T09:26:26.530Z,10.43
2017-11-19T09:28:54.140Z,17.12
2017-11-19T09:31:21.700Z,18.15
2017-11-19T09:33:49.126Z,15.40
2017-11-19T09:36:16.625Z,17.00
2017-11-19T09:38:44.060Z,12.23
2017-11-19T09:41:11.500Z,11.38
2017-11-19T09:43:38.920Z,14.30
2017-11-19T09:46:07.141Z,16.05
2017-11-19T09:48:34.604Z,16.70
2017-11-19T09:51:02.060Z,12.23
2017-11-19T09:53:29.529Z,14.18
2017-11-19T09:55:57.093Z,12.32
2017-11-19T09:58:24.541Z,18.12
2017-11-19T10:00:52.007Z,16.08
2017-11-19T10:03:19.461Z,14.07
2017-11-19T10:05:46.904Z,13.77
2017-11-19T10:08:14.351Z,14.63
2017-11-19T10:10:41.816Z,12.00
2017-11-19T10:13:09.252Z,12.40
2017-11-19T10:15:36.684Z,12.40
2017-11-19T10:18:04.292Z,16.85
2017-11-19T10:20:31.747Z,13.38
2017-11-19T10:22:59.197Z,16.23
2017-11-19T10:25:26.668Z,10.97
2017-11-19T10:27:54.106Z,12.23
2017-11-19T10:30:21.568Z,13.23
2017-11-19T10:32:49.011Z,9.93
2017-11-19T10:35:16.487Z,9.65
2017-11-19T10:37:43.933Z,4.62
2017-11-19T10:40:11.610Z,5.70
2017-11-19T10:42:39.056Z,8.35
2017-11-19T10:45:06.513Z,5.05
2017-11-19T10:47:33.962Z,4.33
2017-11-19T10:50:01.380Z,4.62
2017-11-19T10:52:28.820Z,3.67
2017-11-19T10:54:57.027Z,4.75
2017-11-19T10:57:25.226Z,2.42
2017-11-19T10:59:52.704Z,3.33
2017-11-19T11:02:20.161Z,3.35
2017-11-19T11:04:47.604Z,5.05
2017-11-19T11:07:15.131Z,4.60
2017-11-19T11:09:42.664Z,8.82
2017-11-19T11:12:10.096Z,5.25
2017-11-19T11:14:37.588Z,4.75
2017-11-19T11:17:05.028Z,5.28
2017-11-19T11:19:32.475Z,6.13
2017-11-19T11:22:00.438Z,4.32
2017-11-19T11:24:27.924Z,3.42
2017-11-19T11:26:55.395Z,5.03
2017-11-19T11:29:22.828Z,4.15
2017-11-19T11:31:50.367Z,3.77
2017-11-19T11:34:17.807Z,3.00
2017-11-19T11:36:45.292Z,5.20
2017-11-19T11:39:12.835Z,4.93
2017-11-19T11:41:40.331Z,4.05
2017-11-19T11:44:07.784Z,2.92
2017-11-19T11:46:35.224Z,2.22
2017-11-19T11:49:02.676Z,2.53
2017-11-19T11:51:30.158Z,5.12
2017-11-19T11:53:57.598Z,4.10
2017-11-19T11:56:25.032Z,3.87
2017-11-19T11:58:52.458Z,3.25
2017-11-19T12:01:20.662Z,6.05
2017-11-19T12:03:48.152Z,5.80
2017-11-19T12:06:15.637Z,5.68
2017-11-19T12:08:44.058Z,7.97
2017-11-19T12:11:11.490Z,8.50
2017-11-19T12:13:39.703Z,5.43
2017-11-19T12:16:07.136Z,7.40
2017-11-19T12:18:35.351Z,3.85
2017-11-19T12:21:02.825Z,6.00
2017-11-19T12:23:30.236Z,6.15
2017-11-19T12:25:57.678Z,3.90
2017-11-19T12:28:25.896Z,4.50
2017-11-19T12:30:53.375Z,5.65
2017-11-19T12:33:20.817Z,4.37
2017-11-19T12:35:48.279Z,3.08
2017-11-19T12:38:15.704Z,4.57
2017-11-19T12:40:51.185Z,3.50
2017-11-19T12:43:18.620Z,4.00
2017-11-19T12:45:46.080Z,4.70
2017-11-19T12:48:13.516Z,2.72
2017-11-19T12:50:40.976Z,4.10
2017-11-19T12:53:08.484Z,5.45
2017-11-19T12:55:35.928Z,3.67
2017-11-19T12:58:03.391Z,4.37
2017-11-19T13:00:30.875Z,3.23
2017-11-19T13:02:58.333Z,4.20
2017-11-19T13:05:25.776Z,5.43
2017-11-19T13:07:53.208Z,3.10
2017-11-19T13:10:20.697Z,4.07
2017-11-19T13:12:48.125Z,3.83
2017-11-19T13:15:15.600Z,4.20
2017-11-19T13:17:43.040Z,3.92
2017-11-19T13:20:10.471Z,5.80
2017-11-19T13:22:37.951Z,3.50
2017-11-19T13:25:05.384Z,6.93
2017-11-19T13:27:33.581Z,5.25
2017-11-19T13:30:01.027Z,5.72
2017-11-19T13:32:28.483Z,6.18
2017-11-19T13:34:56.776Z,7.15
2017-11-19T13:37:24.212Z,8.75
2017-11-19T13:39:51.661Z,5.80
2017-11-19T13:42:19.121Z,6.50
2017-11-19T13:44:46.576Z,5.35
2017-11-19T13:47:14.267Z,5.43
2017-11-19T13:49:41.720Z,4.95
2017-11-19T13:52:09.161Z,4.78
2017-11-19T13:54:36.636Z,5.75
2017-11-19T13:57:04.067Z,4.87
2017-11-19T13:59:31.524Z,4.62
2017-11-19T14:01:58.956Z,5.22
2017-11-19T14:04:27.173Z,4.30
2017-11-19T14:06:54.622Z,4.47
2017-11-19T14:09:22.084Z,3.90
2017-11-19T14:11:49.638Z,5.28
2017-11-19T14:14:17.096Z,5.60
2017-11-19T14:16:44.511Z,7.07
2017-11-19T14:19:12.116Z,7.75
2017-11-19T14:21:39.548Z,7.60
2017-11-19T14:24:07.006Z,5.87
2017-11-19T14:26:34.432Z,6.40
2017-11-19T14:29:01.879Z,7.30
2017-11-19T14:31:29.519Z,8.40
2017-11-19T14:33:56.974Z,8.38
2017-11-19T14:36:24.547Z,6.93
2017-11-19T14:38:51.974Z,8.90
2017-11-19T14:41:19.460Z,8.30
2017-11-19T14:43:47.037Z,8.70
2017-11-19T14:46:14.493Z,7.45
2017-11-19T14:48:41.936Z,7.82
2017-11-19T14:51:09.472Z,7.07
2017-11-19T14:53:37.013Z,9.10
2017-11-19T14:56:04.452Z,6.85
2017-11-19T14:58:31.941Z,6.47
2017-11-19T15:00:59.404Z,5.70
2017-11-19T15:03:26.853Z,5.53
2017-11-19T15:05:54.314Z,6.70
2017-11-19T15:08:21.744Z,8.40
2017-11-19T15:10:49.261Z,6.03
2017-11-19T15:13:16.807Z,6.47
2017-11-19T15:15:44.267Z,5.60
2017-11-19T15:18:11.712Z,8.50
2017-11-19T15:20:39.165Z,10.77
2017-11-19T15:23:06.588Z,7.10
2017-11-19T15:25:34.078Z,8.52
2017-11-19T15:28:01.563Z,8.07
2017-11-19T15:30:29.000Z,10.55
2017-11-19T15:32:56.540Z,8.15
2017-11-19T15:35:24.114Z,9.52
2017-11-19T15:37:51.558Z,7.78
2017-11-19T15:40:19.132Z,6.45
2017-11-19T15:42:46.589Z,11.55
2017-11-19T15:45:14.102Z,9.15
2017-11-19T15:47:41.583Z,6.87
2017-11-19T15:50:09.013Z,7.28
2017-11-19T15:52:36.461Z,9.23
2017-11-19T15:55:03.947Z,6.97
2017-11-19T15:57:31.385Z,8.90
2017-11-19T15:59:59.096Z,10.60
2017-11-19T16:02:26.521Z,8.00
2017-11-19T16:04:53.973Z,8.43
2017-11-19T16:07:21.415Z,7.85
2017-11-19T16:09:48.852Z,7.68
2017-11-19T16:12:16.284Z,8.93
2017-11-19T16:14:44.495Z,5.50
2017-11-19T16:17:11.980Z,8.07
2017-11-19T16:19:39.434Z,8.90
2017-11-19T16:22:06.893Z,6.47
2017-11-19T16:24:34.320Z,10.95
2017-11-19T16:27:01.813Z,6.97
2017-11-19T16:29:29.245Z,7.30
2017-11-19T16:31:56.728Z,4.50
2017-11-19T16:34:24.176Z,7.57
2017-11-19T16:36:51.636Z,4.95
2017-11-19T16:39:19.086Z,5.35
2017-11-19T16:41:46.529Z,6.10
2017-11-19T16:44:14.089Z,5.35
2017-11-19T16:46:41.532Z,3.70
2017-11-19T16:49:09.024Z,5.47
2017-11-19T16:51:36.462Z,4.63
2017-11-19T16:54:03.912Z,8.23
2017-11-19T16:56:31.368Z,3.78
2017-11-19T16:58:58.798Z,5.03
2017-11-19T17:01:26.215Z,3.67
2017-11-19T17:03:53.850Z,3.75
2017-11-19T17:06:21.330Z,6.75
2017-11-19T17:08:48.762Z,7.72
2017-11-19T17:11:16.203Z,5.37
2017-11-19T17:13:43.646Z,6.60
2017-11-19T17:16:11.104Z,5.90
2017-11-19T17:18:38.562Z,5.72
2017-11-19T17:21:05.980Z,3.58
2017-11-19T17:23:33.424Z,5.90
2017-11-19T17:26:00.857Z,5.85
2017-11-19T17:28:28.308Z,4.32
2017-11-19T17:30:55.795Z,5.03
2017-11-19T17:33:23.248Z,5.00
2017-11-19T17:35:56.500Z,5.70
2017-11-19T17:38:24.711Z,5.62
2017-11-19T17:40:52.139Z,6.50
2017-11-19T17:43:19.589Z,7.65
2017-11-19T17:45:47.083Z,4.90
2017-11-19T17:48:14.534Z,4.87
2017-11-19T17:50:42.003Z,6.75
2017-11-19T17:53:09.438Z,5.62
2017-11-19T17:55:36.997Z,6.70
2017-11-19T17:58:04.472Z,3.58
2017-11-19T18:00:31.929Z,4.72
2017-11-19T18:02:59.379Z,2.80
2017-11-19T18:05:26.836Z,4.95
2017-11-19T18:07:54.309Z,7.45
2017-11-19T18:10:21.759Z,7.85
2017-11-19T18:12:49.192Z,4.50
2017-11-19T18:15:16.664Z,5.53
2017-11-19T18:17:44.104Z,6.07
2017-11-19T18:20:11.583Z,4.32
2017-11-19T18:22:39.044Z,9.50
2017-11-19T18:25:06.487Z,6.25
2017-11-19T18:27:33.946Z,6.15
2017-11-19T18:30:01.387Z,5.57
2017-11-19T18:32:28.846Z,6.12
2017-11-19T18:34:56.309Z,6.25
2017-11-19T18:37:23.771Z,8.85
2017-11-19T18:39:51.222Z,9.05
2017-11-19T18:42:18.706Z,6.35
2017-11-19T18:44:46.203Z,6.60
2017-11-19T18:47:14.459Z,7.05
2017-11-19T18:49:42.710Z,4.80
2017-11-19T18:52:10.259Z,13.02
2017-11-19T18:54:37.690Z,7.50
2017-11-19T18:57:05.115Z,6.60
2017-11-19T18:59:32.628Z,6.20
2017-11-19T19:02:00.078Z,8.00
2017-11-19T19:04:27.499Z,8.68
2017-11-19T19:06:54.991Z,5.22
2017-11-19T19:09:22.452Z,8.45
2017-11-19T19:11:49.907Z,9.52
2017-11-19T19:14:17.365Z,6.43
2017-11-19T19:16:44.820Z,8.77
2017-11-19T19:19:12.251Z,8.30
2017-11-19T19:21:39.668Z,7.90
2017-11-19T19:24:07.908Z,8.35
2017-11-19T19:26:35.376Z,8.45
2017-11-19T19:29:02.819Z,6.32
2017-11-19T19:31:30.263Z,11.05
2017-11-19T19:33:57.691Z,9.23
2017-11-19T19:36:25.175Z,8.15
2017-11-19T19:38:52.738Z,6.95
2017-11-19T19:41:20.314Z,6.80
2017-11-19T19:43:47.770Z,6.22
2017-11-19T19:46:15.828Z,6.80
2017-11-19T19:48:43.390Z,7.93
2017-11-19T19:51:10.868Z,8.57
2017-11-19T19:53:38.393Z,6.60
2017-11-19T19:56:05.871Z,6.50
2017-11-19T19:58:33.280Z,7.70
2017-11-19T20:01:00.776Z,5.80
2017-11-19T20:03:28.221Z,8.90
2017-11-19T20:05:55.659Z,5.37
2017-11-19T20:08:23.119Z,10.25
2017-11-19T20:10:50.560Z,5.53
2017-11-19T20:13:18.148Z,8.20
2017-11-19T20:15:45.591Z,4.75
2017-11-19T20:18:13.534Z,7.53
2017-11-19T20:20:42.106Z,6.00
2017-11-19T20:23:10.291Z,7.15
2017-11-19T20:25:37.743Z,6.10
2017-11-19T20:28:05.948Z,7.23
2017-11-19T20:30:33.529Z,6.07
2017-11-19T20:33:00.955Z,5.55
2017-11-19T20:35:28.395Z,7.97
2017-11-19T20:37:57.455Z,8.60
2017-11-19T20:40:24.895Z,6.97
2017-11-19T20:42:52.352Z,5.18
2017-11-19T20:45:19.874Z,7.53
2017-11-19T20:47:47.363Z,6.65
2017-11-19T20:50:15.734Z,6.57
2017-11-19T20:52:43.159Z,5.85
2017-11-19T20:55:10.602Z,7.55
2017-11-19T20:57:38.795Z,6.60
2017-11-19T21:00:06.232Z,8.43
2017-11-19T21:02:34.433Z,6.78
2017-11-19T21:05:01.867Z,8.20
2017-11-19T21:07:29.283Z,5.78
2017-11-19T21:09:56.713Z,5.82
2017-11-19T21:12:24.151Z,8.53
2017-11-19T21:14:51.628Z,7.60
2017-11-19T21:17:19.064Z,9.53
2017-11-19T21:19:46.496Z,6.60
2017-11-19T21:22:14.717Z,5.45
2017-11-19T21:24:42.170Z,5.55
2017-11-19T21:27:09.605Z,5.60
2017-11-19T21:29:37.192Z,8.43
2017-11-19T21:32:04.647Z,6.45
2017-11-19T21:34:32.110Z,9.18
2017-11-19T21:36:59.559Z,10.27
2017-11-19T21:39:27.013Z,6.00
2017-11-19T21:41:54.468Z,7.15
2017-11-19T21:44:21.908Z,9.48
2017-11-19T21:46:49.370Z,6.40
2017-11-19T21:49:16.849Z,7.90
2017-11-19T21:51:44.296Z,9.25
2017-11-19T21:54:11.763Z,7.80
2017-11-19T21:56:39.207Z,9.90
2017-11-19T21:59:06.778Z,8.90
2017-11-19T22:01:34.239Z,9.23
2017-11-19T22:04:01.688Z,13.20
2017-11-19T22:06:29.161Z,14.30
2017-11-19T22:08:56.613Z,6.78
2017-11-19T22:11:24.098Z,9.68
2017-11-19T22:13:51.643Z,8.57
2017-11-19T22:16:19.185Z,10.27
2017-11-19T22:18:46.728Z,7.30
2017-11-19T22:21:14.192Z,9.13
2017-11-19T22:23:41.657Z,7.18
2017-11-19T22:26:09.111Z,6.57
2017-11-19T22:28:36.556Z,4.95
2017-11-19T22:31:04.015Z,5.75
2017-11-19T22:33:31.468Z,5.93
2017-11-19T22:35:58.910Z,8.90
2017-11-19T22:38:26.382Z,5.85
2017-11-19T22:40:53.826Z,7.75
2017-11-19T22:43:21.369Z,10.30
2017-11-19T22:45:49.696Z,5.75
2017-11-19T22:48:17.237Z,8.60
2017-11-19T22:50:44.698Z,6.50
2017-11-19T22:53:12.136Z,6.27
2017-11-19T22:55:39.560Z,8.67
2017-11-19T22:58:07.051Z,4.70
2017-11-19T23:00:34.471Z,4.43
2017-11-19T23:03:01.900Z,6.55
2017-11-19T23:05:29.338Z,6.87
2017-11-19T23:07:56.775Z,5.32
2017-11-19T23:10:24.237Z,7.20
2017-11-19T23:12:51.655Z,7.68
2017-11-19T23:15:19.086Z,6.10
2017-11-19T23:17:47.294Z,4.50
2017-11-19T23:20:14.722Z,5.12
2017-11-19T23:22:42.163Z,6.60
2017-11-19T23:25:10.460Z,8.53
2017-11-19T23:27:38.622Z,6.80
2017-11-19T23:30:06.957Z,6.65
2017-11-19T23:32:34.379Z,4.30
2017-11-19T23:35:01.815Z,5.18
2017-11-19T23:37:29.316Z,5.75
2017-11-19T23:39:56.755Z,4.50
2017-11-19T23:42:24.195Z,3.47
2017-11-19T23:44:51.619Z,6.97
2017-11-19T23:47:19.139Z,2.33
2017-11-19T23:49:46.595Z,4.57
2017-11-19T23:52:14.015Z,6.30
2017-11-19T23:54:41.494Z,4.70
2017-11-19T23:57:08.926Z,5.10
2017-11-19T23:59:36.424Z,2.62
